createdAt,value
2018-12-08T00:00:50.274Z,0.00
2018-12-08T00:01:50.282Z,0.00
2018-12-08T00:02:50.317Z,0.00
2018-12-08T00:03:50.308Z,0.00
2018-12-08T00:04:50.463Z,0.00
2018-12-08T00:05:50.344Z,0.00
2018-12-08T00:06:50.402Z,0.00
2018-12-08T00:07:50.364Z,0.00
2018-12-08T00:08:50.369Z,0.00
2018-12-08T00:09:50.488Z,0.00
2018-12-08T00:10:50.413Z,0.00
2018-12-08T00:11:50.402Z,0.00
2018-12-08T00:12:50.414Z,0.00
2018-12-08T00:13:50.426Z,0.00
2018-12-08T00:14:50.674Z,0.00
2018-12-08T00:15:50.453Z,0.00
2018-12-08T00:16:50.481Z,0.00
2018-12-08T00:17:50.494Z,0.00
2018-12-08T00:18:50.626Z,0.00
2018-12-08T00:19:50.611Z,0.00
2018-12-08T00:20:50.545Z,0.00
2018-12-08T00:21:50.591Z,0.00
2018-12-08T00:22:50.564Z,0.00
2018-12-08T00:23:50.631Z,0.00
2018-12-08T00:24:50.801Z,0.00
2018-12-08T00:25:50.594Z,0.00
2018-12-08T00:26:50.599Z,0.00
2018-12-08T00:27:50.623Z,0.00
2018-12-08T00:28:50.625Z,0.00
2018-12-08T00:29:50.838Z,0.00
2018-12-08T00:30:50.674Z,0.00
2018-12-08T00:31:50.663Z,0.00
2018-12-08T00:32:50.694Z,0.00
2018-12-08T00:33:50.815Z,0.00
2018-12-08T00:34:50.820Z,0.00
2018-12-08T00:35:50.773Z,0.00
2018-12-08T00:36:50.741Z,0.00
2018-12-08T00:37:50.754Z,0.00
2018-12-08T00:38:50.765Z,0.00
2018-12-08T00:39:50.882Z,0.00
2018-12-08T00:40:50.903Z,0.00
2018-12-08T00:41:50.916Z,0.00
2018-12-08T00:42:50.812Z,0.00
2018-12-08T00:43:50.818Z,0.00
2018-12-08T00:44:50.953Z,0.00
2018-12-08T00:45:50.851Z,0.00
2018-12-08T00:46:50.863Z,0.00
2018-12-08T00:47:50.992Z,0.00
2018-12-08T00:48:50.888Z,0.00
2018-12-08T00:49:51.093Z,0.00
2018-12-08T00:50:50.895Z,0.00
2018-12-08T00:51:51.048Z,0.00
2018-12-08T00:52:50.932Z,0.00
2018-12-08T00:53:50.954Z,0.00
2018-12-08T00:54:51.115Z,0.00
2018-12-08T00:55:50.993Z,0.00
2018-12-08T00:56:50.983Z,0.00
2018-12-08T00:57:51.005Z,0.00
2018-12-08T00:58:51.031Z,0.00
2018-12-08T00:59:51.113Z,0.00
2018-12-08T01:00:51.049Z,0.00
2018-12-08T01:01:51.055Z,0.00
2018-12-08T01:02:51.064Z,0.00
2018-12-08T01:03:51.076Z,0.00
2018-12-08T01:04:51.253Z,0.00
2018-12-08T01:05:51.234Z,0.00
2018-12-08T01:06:51.143Z,0.00
2018-12-08T01:07:51.132Z,0.00
2018-12-08T01:08:51.158Z,0.00
2018-12-08T01:09:51.321Z,0.00
2018-12-08T01:10:51.190Z,0.00
2018-12-08T01:11:51.179Z,0.00
2018-12-08T01:12:51.190Z,0.00
2018-12-08T01:13:51.203Z,0.00
2018-12-08T01:14:51.362Z,0.00
2018-12-08T01:15:51.239Z,0.00
2018-12-08T01:16:51.259Z,0.00
2018-12-08T01:17:51.268Z,0.00
2018-12-08T01:18:51.273Z,0.00
2018-12-08T01:19:51.509Z,0.00
2018-12-08T01:20:51.298Z,0.00
2018-12-08T01:21:51.330Z,0.00
2018-12-08T01:22:51.448Z,0.00
2018-12-08T01:23:51.354Z,0.00
2018-12-08T01:24:51.550Z,0.00
2018-12-08T01:25:51.379Z,0.00
2018-12-08T01:26:51.385Z,0.00
2018-12-08T01:27:51.410Z,0.00
2018-12-08T01:28:51.526Z,0.00
2018-12-08T01:29:51.467Z,0.00
2018-12-08T01:30:51.440Z,0.00
2018-12-08T01:31:51.437Z,0.00
2018-12-08T01:32:51.564Z,0.00
2018-12-08T01:33:51.491Z,0.00
2018-12-08T01:34:51.480Z,0.00
2018-12-08T01:35:51.624Z,0.00
2018-12-08T01:36:51.543Z,0.00
2018-12-08T01:37:51.653Z,0.00
2018-12-08T01:38:51.557Z,0.00
2018-12-08T01:39:51.549Z,0.00
2018-12-08T01:40:51.570Z,0.00
2018-12-08T01:41:51.701Z,0.00
2018-12-08T01:42:51.703Z,0.00
2018-12-08T01:43:51.609Z,0.00
2018-12-08T01:44:51.638Z,0.00
2018-12-08T01:45:51.666Z,0.00
2018-12-08T01:46:51.668Z,0.00
2018-12-08T01:47:51.753Z,0.00
2018-12-08T01:48:51.663Z,0.00
2018-12-08T01:49:51.725Z,0.00
2018-12-08T01:50:51.689Z,0.00
2018-12-08T01:51:51.718Z,0.00
2018-12-08T01:52:51.936Z,0.00
2018-12-08T01:53:51.736Z,0.00
2018-12-08T01:54:51.864Z,0.00
2018-12-08T01:55:51.877Z,0.00
2018-12-08T01:56:51.792Z,0.00
2018-12-08T01:57:51.889Z,0.00
2018-12-08T01:58:51.798Z,0.00
2018-12-08T01:59:51.826Z,0.00
2018-12-08T02:00:51.831Z,0.00
2018-12-08T02:01:51.837Z,0.00
2018-12-08T02:02:52.014Z,0.00
2018-12-08T02:03:52.889Z,0.00
2018-12-08T02:04:51.879Z,0.00
2018-12-08T02:05:51.901Z,0.00
2018-12-08T02:06:51.890Z,0.00
2018-12-08T02:07:52.003Z,0.00
2018-12-08T02:08:51.926Z,0.00
2018-12-08T02:09:52.010Z,0.00
2018-12-08T02:10:52.007Z,0.00
2018-12-08T02:11:51.964Z,0.00
2018-12-08T02:12:52.128Z,0.00
2018-12-08T02:13:52.102Z,0.00
2018-12-08T02:14:51.992Z,0.00
2018-12-08T02:15:52.127Z,0.00
2018-12-08T02:16:52.011Z,0.00
2018-12-08T02:17:52.179Z,0.00
2018-12-08T02:18:52.050Z,0.00
2018-12-08T02:19:52.050Z,0.00
2018-12-08T02:20:52.069Z,0.00
2018-12-08T02:21:52.077Z,0.00
2018-12-08T02:22:52.182Z,0.00
2018-12-08T02:23:52.093Z,0.00
2018-12-08T02:24:52.126Z,0.00
2018-12-08T02:25:52.133Z,0.00
2018-12-08T02:26:52.133Z,0.00
2018-12-08T02:27:52.257Z,0.00
2018-12-08T02:28:52.165Z,0.00
2018-12-08T02:29:52.174Z,0.00
2018-12-08T02:30:52.196Z,0.00
2018-12-08T02:31:52.215Z,0.00
2018-12-08T02:32:52.355Z,0.00
2018-12-08T02:33:52.226Z,0.00
2018-12-08T02:34:52.362Z,0.00
2018-12-08T02:35:52.374Z,0.00
2018-12-08T02:36:52.261Z,0.00
2018-12-08T02:37:52.368Z,0.00
2018-12-08T02:38:52.294Z,0.00
2018-12-08T02:39:52.297Z,0.00
2018-12-08T02:40:52.365Z,0.00
2018-12-08T02:41:52.340Z,0.00
2018-12-08T02:42:52.440Z,0.00
2018-12-08T02:43:52.348Z,0.00
2018-12-08T02:44:52.543Z,0.00
2018-12-08T02:45:52.495Z,0.00
2018-12-08T02:46:52.397Z,0.00
2018-12-08T02:47:52.557Z,0.00
2018-12-08T02:48:52.419Z,0.00
2018-12-08T02:49:52.438Z,0.00
2018-12-08T02:50:52.444Z,0.00
2018-12-08T02:51:52.468Z,0.00
2018-12-08T02:52:52.555Z,0.00
2018-12-08T02:53:52.483Z,0.00
2018-12-08T02:54:52.488Z,0.00
2018-12-08T02:55:52.502Z,0.00
2018-12-08T02:56:52.628Z,0.00
2018-12-08T02:57:52.667Z,0.00
2018-12-08T02:58:52.527Z,0.00
2018-12-08T02:59:52.534Z,0.00
2018-12-08T03:00:52.553Z,0.00
2018-12-08T03:01:52.567Z,0.00
2018-12-08T03:02:52.680Z,0.00
2018-12-08T03:03:52.717Z,0.00
2018-12-08T03:04:52.610Z,0.00
2018-12-08T03:05:52.629Z,0.00
2018-12-08T03:06:52.631Z,0.00
2018-12-08T03:07:52.783Z,0.00
2018-12-08T03:08:52.663Z,0.00
2018-12-08T03:09:52.691Z,0.00
2018-12-08T03:10:52.682Z,0.00
2018-12-08T03:11:52.695Z,0.00
2018-12-08T03:12:52.805Z,0.00
2018-12-08T03:13:52.708Z,0.00
2018-12-08T03:14:52.849Z,0.00
2018-12-08T03:15:52.746Z,0.00
2018-12-08T03:16:52.749Z,0.00
2018-12-08T03:17:52.873Z,0.00
2018-12-08T03:18:52.896Z,0.00
2018-12-08T03:19:52.798Z,0.00
2018-12-08T03:20:52.791Z,0.00
2018-12-08T03:21:52.811Z,0.00
2018-12-08T03:22:52.994Z,0.00
2018-12-08T03:23:52.837Z,0.00
2018-12-08T03:24:52.848Z,0.00
2018-12-08T03:25:52.848Z,0.00
2018-12-08T03:26:52.864Z,0.00
2018-12-08T03:27:52.991Z,0.00
2018-12-08T03:28:52.889Z,0.00
2018-12-08T03:29:53.025Z,0.00
2018-12-08T03:30:52.930Z,0.00
2018-12-08T03:31:52.935Z,0.00
2018-12-08T03:32:53.043Z,0.00
2018-12-08T03:33:53.073Z,0.00
2018-12-08T03:34:52.968Z,0.00
2018-12-08T03:35:52.971Z,0.00
2018-12-08T03:36:52.975Z,0.00
2018-12-08T03:37:53.103Z,0.00
2018-12-08T03:38:53.133Z,0.00
2018-12-08T03:39:53.021Z,0.00
2018-12-08T03:40:53.031Z,0.00
2018-12-08T03:41:53.056Z,0.00
2018-12-08T03:42:53.280Z,0.00
2018-12-08T03:43:53.075Z,0.00
2018-12-08T03:44:53.205Z,0.00
2018-12-08T03:45:53.094Z,0.00
2018-12-08T03:46:53.118Z,0.00
2018-12-08T03:47:53.205Z,0.00
2018-12-08T03:48:53.172Z,0.00
2018-12-08T03:49:53.148Z,0.00
2018-12-08T03:50:53.159Z,0.00
2018-12-08T03:51:53.155Z,0.00
2018-12-08T03:52:53.287Z,0.00
2018-12-08T03:53:53.191Z,0.00
2018-12-08T03:54:53.199Z,0.00
2018-12-08T03:55:53.334Z,0.00
2018-12-08T03:56:53.342Z,0.00
2018-12-08T03:57:53.325Z,0.00
2018-12-08T03:58:53.369Z,0.00
2018-12-08T03:59:53.264Z,0.00
2018-12-08T04:00:53.281Z,0.00
2018-12-08T04:01:53.285Z,0.00
2018-12-08T04:02:53.435Z,0.00
2018-12-08T04:03:53.303Z,0.00
2018-12-08T04:04:53.319Z,0.00
2018-12-08T04:05:53.338Z,0.00
2018-12-08T04:06:53.330Z,0.00
2018-12-08T04:07:53.545Z,0.00
2018-12-08T04:08:53.482Z,0.00
2018-12-08T04:09:53.373Z,0.00
2018-12-08T04:10:53.499Z,0.00
2018-12-08T04:11:53.521Z,0.00
2018-12-08T04:12:53.514Z,0.00
2018-12-08T04:13:53.419Z,0.00
2018-12-08T04:14:53.461Z,0.00
2018-12-08T04:15:53.457Z,0.00
2018-12-08T04:16:53.603Z,0.00
2018-12-08T04:17:53.573Z,0.00
2018-12-08T04:18:53.605Z,0.00
2018-12-08T04:19:53.615Z,0.00
2018-12-08T04:20:53.509Z,0.00
2018-12-08T04:21:53.637Z,0.00
2018-12-08T04:22:53.625Z,0.00
2018-12-08T04:23:53.555Z,0.00
2018-12-08T04:24:53.564Z,0.00
2018-12-08T04:25:53.578Z,0.00
2018-12-08T04:26:53.588Z,0.00
2018-12-08T04:27:53.806Z,0.00
2018-12-08T04:28:53.615Z,0.00
2018-12-08T04:29:53.630Z,0.00
2018-12-08T04:30:53.620Z,0.00
2018-12-08T04:31:53.643Z,0.00
2018-12-08T04:32:53.745Z,0.00
2018-12-08T04:33:53.819Z,0.00
2018-12-08T04:34:53.669Z,0.00
2018-12-08T04:35:54.748Z,0.00
2018-12-08T04:36:53.682Z,0.00
2018-12-08T04:37:53.806Z,0.00
2018-12-08T04:38:53.702Z,0.00
2018-12-08T04:39:53.723Z,0.00
2018-12-08T04:40:53.729Z,0.00
2018-12-08T04:41:53.745Z,0.00
2018-12-08T04:42:53.983Z,0.00
2018-12-08T04:43:53.776Z,0.00
2018-12-08T04:44:53.784Z,0.00
2018-12-08T04:45:53.797Z,0.00
2018-12-08T04:46:53.794Z,0.00
2018-12-08T04:47:53.919Z,0.00
2018-12-08T04:48:53.847Z,0.00
2018-12-08T04:49:53.911Z,0.00
2018-12-08T04:50:53.873Z,0.00
2018-12-08T04:51:53.868Z,0.00
2018-12-08T04:52:53.996Z,0.00
2018-12-08T04:53:53.892Z,0.00
2018-12-08T04:54:53.895Z,0.00
2018-12-08T04:55:54.029Z,0.00
2018-12-08T04:56:53.911Z,0.00
2018-12-08T04:57:54.035Z,0.00
2018-12-08T04:58:53.954Z,0.00
2018-12-08T04:59:53.950Z,0.00
2018-12-08T05:00:53.986Z,0.00
2018-12-08T05:01:53.998Z,0.00
2018-12-08T05:02:54.078Z,0.00
2018-12-08T05:03:54.014Z,0.00
2018-12-08T05:04:54.008Z,0.00
2018-12-08T05:05:54.034Z,0.00
2018-12-08T05:06:54.030Z,0.00
2018-12-08T05:07:54.242Z,0.00
2018-12-08T05:08:54.062Z,0.00
2018-12-08T05:09:54.064Z,0.00
2018-12-08T05:10:54.094Z,0.00
2018-12-08T05:11:54.212Z,0.00
2018-12-08T05:12:54.188Z,0.00
2018-12-08T05:13:54.149Z,0.00
2018-12-08T05:14:54.168Z,0.00
2018-12-08T05:15:54.256Z,0.00
2018-12-08T05:16:54.156Z,0.00
2018-12-08T05:17:54.267Z,0.00
2018-12-08T05:18:54.203Z,0.00
2018-12-08T05:19:54.240Z,0.00
2018-12-08T05:20:54.178Z,0.00
2018-12-08T05:21:54.201Z,0.00
2018-12-08T05:22:54.315Z,0.00
2018-12-08T05:23:54.339Z,0.00
2018-12-08T05:24:54.351Z,0.00
2018-12-08T05:25:54.235Z,0.00
2018-12-08T05:26:54.240Z,0.00
2018-12-08T05:27:54.377Z,0.00
2018-12-08T05:28:54.383Z,0.00
2018-12-08T05:29:54.280Z,0.00
2018-12-08T05:30:54.310Z,0.00
2018-12-08T05:31:54.365Z,0.00
2018-12-08T05:32:54.435Z,0.00
2018-12-08T05:33:54.316Z,0.00
2018-12-08T05:34:54.457Z,0.00
2018-12-08T05:35:54.338Z,0.00
2018-12-08T05:36:54.370Z,0.00
2018-12-08T05:37:54.485Z,0.00
2018-12-08T05:38:54.383Z,0.00
2018-12-08T05:39:54.461Z,0.00
2018-12-08T05:40:54.394Z,0.00
2018-12-08T05:41:54.424Z,0.00
2018-12-08T05:42:54.533Z,0.00
2018-12-08T05:43:54.441Z,0.00
2018-12-08T05:44:54.565Z,0.00
2018-12-08T05:45:54.445Z,0.00
2018-12-08T05:46:54.585Z,0.00
2018-12-08T05:47:54.573Z,0.00
2018-12-08T05:48:54.607Z,0.00
2018-12-08T05:49:54.509Z,0.00
2018-12-08T05:50:54.519Z,0.00
2018-12-08T05:51:54.522Z,0.00
2018-12-08T05:52:54.720Z,0.00
2018-12-08T05:53:54.540Z,0.00
2018-12-08T05:54:54.564Z,0.00
2018-12-08T05:55:54.562Z,0.00
2018-12-08T05:56:54.577Z,0.00
2018-12-08T05:57:54.750Z,0.00
2018-12-08T05:58:54.595Z,0.00
2018-12-08T05:59:54.598Z,0.00
2018-12-08T06:00:54.735Z,0.00
2018-12-08T06:01:54.738Z,0.00
2018-12-08T06:02:54.739Z,0.00
2018-12-08T06:03:54.635Z,0.00
2018-12-08T06:04:54.643Z,0.00
2018-12-08T06:05:54.672Z,0.00
2018-12-08T06:06:54.672Z,0.00
2018-12-08T06:07:54.912Z,0.00
2018-12-08T06:08:54.722Z,0.00
2018-12-08T06:09:54.831Z,0.00
2018-12-08T06:10:54.715Z,0.00
2018-12-08T06:11:54.737Z,0.00
2018-12-08T06:12:54.964Z,0.00
2018-12-08T06:13:54.743Z,0.00
2018-12-08T06:14:54.749Z,0.00
2018-12-08T06:15:54.773Z,0.00
2018-12-08T06:16:54.788Z,0.00
2018-12-08T06:17:54.958Z,0.00
2018-12-08T06:18:54.798Z,0.00
2018-12-08T06:19:54.807Z,0.00
2018-12-08T06:20:54.815Z,0.00
2018-12-08T06:21:54.847Z,0.00
2018-12-08T06:22:55.123Z,0.00
2018-12-08T06:23:54.866Z,0.00
2018-12-08T06:24:54.886Z,0.00
2018-12-08T06:25:54.895Z,0.00
2018-12-08T06:26:54.884Z,0.00
2018-12-08T06:27:55.006Z,0.00
2018-12-08T06:28:54.929Z,0.00
2018-12-08T06:29:54.930Z,0.00
2018-12-08T06:30:54.935Z,0.00
2018-12-08T06:31:54.972Z,0.00
2018-12-08T06:32:55.168Z,0.00
2018-12-08T06:33:54.975Z,0.00
2018-12-08T06:34:54.980Z,0.00
2018-12-08T06:35:54.990Z,0.00
2018-12-08T06:36:54.989Z,0.00
2018-12-08T06:37:55.120Z,0.00
2018-12-08T06:38:55.034Z,0.00
2018-12-08T06:39:55.049Z,0.00
2018-12-08T06:40:55.046Z,0.00
2018-12-08T06:42:00.181Z,0.00
2018-12-08T06:42:55.225Z,0.00
2018-12-08T06:43:55.104Z,0.00
2018-12-08T06:44:55.102Z,0.00
2018-12-08T06:45:55.224Z,0.00
2018-12-08T06:46:55.117Z,0.00
2018-12-08T06:47:55.185Z,0.00
2018-12-08T06:48:55.226Z,0.00
2018-12-08T06:49:55.145Z,0.00
2018-12-08T06:50:55.277Z,0.00
2018-12-08T06:51:55.165Z,0.00
2018-12-08T06:52:55.177Z,0.00
2018-12-08T06:53:55.284Z,0.00
2018-12-08T06:54:55.198Z,0.00
2018-12-08T06:55:55.219Z,0.00
2018-12-08T06:56:55.229Z,0.00
2018-12-08T06:57:55.232Z,0.00
2018-12-08T06:58:55.392Z,0.00
2018-12-08T06:59:55.254Z,0.00
2018-12-08T07:00:55.269Z,0.00
2018-12-08T07:01:55.289Z,0.00
2018-12-08T07:02:55.285Z,0.00
2018-12-08T07:03:55.404Z,0.00
2018-12-08T07:04:55.313Z,0.00
2018-12-08T07:05:55.338Z,0.00
2018-12-08T07:06:55.329Z,0.00
2018-12-08T07:07:55.351Z,0.00
2018-12-08T07:08:55.496Z,0.00
2018-12-08T07:09:55.373Z,0.00
2018-12-08T07:10:55.493Z,0.00
2018-12-08T07:11:55.396Z,0.00
2018-12-08T07:12:55.407Z,0.00
2018-12-08T07:13:55.510Z,0.00
2018-12-08T07:14:55.421Z,0.00
2018-12-08T07:15:55.440Z,0.00
2018-12-08T07:16:55.443Z,0.00
2018-12-08T07:17:55.448Z,0.00
2018-12-08T07:18:55.566Z,0.00
2018-12-08T07:19:55.468Z,0.00
2018-12-08T07:20:55.491Z,0.00
2018-12-08T07:21:55.614Z,0.00
2018-12-08T07:22:55.519Z,0.00
2018-12-08T07:23:55.737Z,0.00
2018-12-08T07:24:55.521Z,0.00
2018-12-08T07:25:55.548Z,0.00
2018-12-08T07:26:55.590Z,0.00
2018-12-08T07:27:55.567Z,0.00
2018-12-08T07:28:55.667Z,0.00
2018-12-08T07:29:55.577Z,0.00
2018-12-08T07:30:55.587Z,0.00
2018-12-08T07:31:55.607Z,0.00
2018-12-08T07:32:55.604Z,0.00
2018-12-08T07:33:55.722Z,0.00
2018-12-08T07:34:55.649Z,0.00
2018-12-08T07:35:55.642Z,0.00
2018-12-08T07:36:55.658Z,0.00
2018-12-08T07:37:55.669Z,0.00
2018-12-08T07:38:55.886Z,0.00
2018-12-08T07:39:57.562Z,0.00
2018-12-08T07:40:55.710Z,0.00
2018-12-08T07:41:55.708Z,0.00
2018-12-08T07:42:55.731Z,0.00
2018-12-08T07:43:56.002Z,0.00
2018-12-08T07:44:55.739Z,0.00
2018-12-08T07:45:55.753Z,0.00
2018-12-08T07:46:55.754Z,0.00
2018-12-08T07:47:55.784Z,0.00
2018-12-08T07:48:55.898Z,0.00
2018-12-08T07:49:55.802Z,0.00
2018-12-08T07:50:55.929Z,4.00
2018-12-08T07:51:55.822Z,0.00
2018-12-08T07:52:55.953Z,4.00
2018-12-08T07:53:55.930Z,0.00
2018-12-08T07:54:55.865Z,4.00
2018-12-08T07:55:55.954Z,4.00
2018-12-08T07:56:55.871Z,4.00
2018-12-08T07:57:55.880Z,4.00
2018-12-08T07:58:56.009Z,8.00
2018-12-08T07:59:55.906Z,8.00
2018-12-08T08:00:55.926Z,8.00
2018-12-08T08:01:55.970Z,12.00
2018-12-08T08:02:55.984Z,16.00
2018-12-08T08:03:56.060Z,20.00
2018-12-08T08:04:55.957Z,32.00
2018-12-08T08:05:56.029Z,40.00
2018-12-08T08:06:56.000Z,52.00
2018-12-08T08:07:55.993Z,76.00
2018-12-08T08:08:56.009Z,100.00
2018-12-08T08:09:56.122Z,120.00
2018-12-08T08:10:56.029Z,144.00
2018-12-08T08:11:56.034Z,176.00
2018-12-08T08:12:56.064Z,204.00
2018-12-08T08:13:56.061Z,252.00
2018-12-08T08:14:56.170Z,300.00
2018-12-08T08:15:56.078Z,352.00
2018-12-08T08:16:56.108Z,400.00
2018-12-08T08:17:56.219Z,472.00
2018-12-08T08:18:56.133Z,524.00
2018-12-08T08:19:56.116Z,600.00
2018-12-08T08:20:56.239Z,632.00
2018-12-08T08:21:56.151Z,632.00
2018-12-08T08:22:56.158Z,672.00
2018-12-08T08:23:56.214Z,668.00
2018-12-08T08:24:56.176Z,636.00
2018-12-08T08:25:56.279Z,652.00
2018-12-08T08:26:56.189Z,644.00
2018-12-08T08:27:56.201Z,676.00
2018-12-08T08:28:56.218Z,776.00
2018-12-08T08:29:56.249Z,744.00
2018-12-08T08:30:56.343Z,712.00
2018-12-08T08:31:56.257Z,692.00
2018-12-08T08:32:56.265Z,768.00
2018-12-08T08:33:56.268Z,832.00
2018-12-08T08:34:56.272Z,864.00
2018-12-08T08:35:56.349Z,944.00
2018-12-08T08:36:56.300Z,1044.00
2018-12-08T08:37:56.304Z,1244.00
2018-12-08T08:38:56.315Z,1432.00
2018-12-08T08:39:56.331Z,1608.00
2018-12-08T08:40:56.442Z,1752.00
2018-12-08T08:41:56.355Z,1872.00
2018-12-08T08:42:56.364Z,1948.00
2018-12-08T08:43:56.359Z,2068.00
2018-12-08T08:44:56.393Z,2072.00
2018-12-08T08:45:56.482Z,1932.00
2018-12-08T08:46:56.397Z,1896.00
2018-12-08T08:47:56.427Z,2068.00
2018-12-08T08:48:56.424Z,2360.00
2018-12-08T08:49:56.430Z,2504.00
2018-12-08T08:50:56.552Z,2624.00
2018-12-08T08:51:56.459Z,2844.00
2018-12-08T08:52:56.454Z,3220.00
2018-12-08T08:53:56.475Z,4000.00
2018-12-08T08:54:56.607Z,4628.00
2018-12-08T08:55:56.598Z,4528.00
2018-12-08T08:56:56.506Z,4124.00
2018-12-08T08:57:56.534Z,3232.00
2018-12-08T08:58:56.550Z,3176.00
2018-12-08T08:59:56.555Z,3228.00
2018-12-08T09:00:56.666Z,3452.00
2018-12-08T09:01:56.560Z,3352.00
2018-12-08T09:02:56.583Z,3484.00
2018-12-08T09:03:56.585Z,4012.00
2018-12-08T09:04:56.592Z,3656.00
2018-12-08T09:05:56.755Z,4728.00
2018-12-08T09:06:56.743Z,5884.00
2018-12-08T09:07:56.631Z,5436.00
2018-12-08T09:08:56.652Z,5160.00
2018-12-08T09:09:56.665Z,6176.00
2018-12-08T09:10:56.823Z,5480.00
2018-12-08T09:11:56.675Z,3948.00
2018-12-08T09:12:56.732Z,3832.00
2018-12-08T09:13:56.720Z,4040.00
2018-12-08T09:14:56.721Z,4744.00
2018-12-08T09:15:56.852Z,4508.00
2018-12-08T09:16:56.856Z,4168.00
2018-12-08T09:17:56.751Z,3988.00
2018-12-08T09:18:56.748Z,4144.00
2018-12-08T09:19:56.769Z,4000.00
2018-12-08T09:20:56.881Z,4104.00
2018-12-08T09:21:57.556Z,4356.00
2018-12-08T09:22:56.822Z,4124.00
2018-12-08T09:23:56.825Z,4660.00
2018-12-08T09:24:56.826Z,5308.00
2018-12-08T09:25:56.932Z,6068.00
2018-12-08T09:26:56.865Z,7852.00
2018-12-08T09:27:56.881Z,8632.00
2018-12-08T09:28:56.886Z,7008.00
2018-12-08T09:29:57.015Z,5064.00
2018-12-08T09:30:57.009Z,4536.00
2018-12-08T09:31:56.903Z,3844.00
2018-12-08T09:32:57.045Z,3572.00
2018-12-08T09:33:56.949Z,2868.00
2018-12-08T09:34:57.015Z,3080.00
2018-12-08T09:35:57.054Z,2980.00
2018-12-08T09:36:56.979Z,2832.00
2018-12-08T09:37:56.983Z,2504.00
2018-12-08T09:38:57.001Z,2124.00
2018-12-08T09:39:57.186Z,2520.00
2018-12-08T09:40:57.168Z,2152.00
2018-12-08T09:41:57.028Z,2020.00
2018-12-08T09:42:57.046Z,2080.00
2018-12-08T09:43:57.055Z,2584.00
2018-12-08T09:44:57.063Z,2868.00
2018-12-08T09:45:57.300Z,2696.00
2018-12-08T09:46:57.087Z,3844.00
2018-12-08T09:47:57.111Z,3852.00
2018-12-08T09:48:57.122Z,3060.00
2018-12-08T09:49:57.124Z,2904.00
2018-12-08T09:50:57.242Z,3044.00
2018-12-08T09:51:57.273Z,3192.00
2018-12-08T09:52:57.165Z,3864.00
2018-12-08T09:53:57.179Z,4632.00
2018-12-08T09:54:57.309Z,4968.00
2018-12-08T09:55:57.313Z,4708.00
2018-12-08T09:56:57.222Z,4204.00
2018-12-08T09:57:57.217Z,3568.00
2018-12-08T09:58:57.237Z,3360.00
2018-12-08T09:59:57.250Z,4348.00
2018-12-08T10:00:57.359Z,5972.00
2018-12-08T10:01:57.277Z,11200.00
2018-12-08T10:02:57.277Z,29792.00
2018-12-08T10:03:57.342Z,41952.00
2018-12-08T10:04:57.322Z,58624.00
2018-12-08T10:05:57.411Z,75136.00
2018-12-08T10:06:57.338Z,80992.00
2018-12-08T10:07:57.338Z,51744.00
2018-12-08T10:08:57.350Z,31552.00
2018-12-08T10:09:57.376Z,49984.00
2018-12-08T10:10:57.538Z,67424.00
2018-12-08T10:11:57.453Z,75040.00
2018-12-08T10:12:57.412Z,85024.00
2018-12-08T10:13:57.444Z,74336.00
2018-12-08T10:14:57.474Z,45952.00
2018-12-08T10:15:57.564Z,69888.00
2018-12-08T10:16:57.456Z,67136.00
2018-12-08T10:17:57.479Z,61184.00
2018-12-08T10:18:57.504Z,47744.00
2018-12-08T10:19:57.525Z,49376.00
2018-12-08T10:20:57.665Z,40448.00
2018-12-08T10:21:57.536Z,50528.00
2018-12-08T10:22:57.547Z,71936.00
2018-12-08T10:23:57.561Z,89760.00
2018-12-08T10:24:57.582Z,37312.00
2018-12-08T10:25:57.702Z,34432.00
2018-12-08T10:26:57.616Z,38688.00
2018-12-08T10:27:57.625Z,31008.00
2018-12-08T10:28:57.644Z,61504.00
2018-12-08T10:29:57.707Z,42848.00
2018-12-08T10:31:01.257Z,31040.00
2018-12-08T10:31:57.739Z,42336.00
2018-12-08T10:32:57.714Z,24256.00
2018-12-08T10:33:57.849Z,27840.00
2018-12-08T10:34:57.848Z,21312.00
2018-12-08T10:35:57.860Z,16780.00
2018-12-08T10:36:57.785Z,29824.00
2018-12-08T10:37:57.787Z,23072.00
2018-12-08T10:38:57.822Z,22016.00
2018-12-08T10:39:57.834Z,19712.00
2018-12-08T10:40:57.973Z,23232.00
2018-12-08T10:41:57.867Z,53152.00
2018-12-08T10:42:57.894Z,18592.00
2018-12-08T10:43:57.899Z,22016.00
2018-12-08T10:44:57.923Z,18656.00
2018-12-08T10:45:58.044Z,15572.00
2018-12-08T10:46:57.935Z,17120.00
2018-12-08T10:47:57.969Z,16240.00
2018-12-08T10:48:58.092Z,16072.00
2018-12-08T10:49:57.990Z,12476.00
2018-12-08T10:50:58.100Z,10352.00
2018-12-08T10:51:58.017Z,11228.00
2018-12-08T10:52:58.082Z,9920.00
2018-12-08T10:53:58.089Z,11484.00
2018-12-08T10:54:58.093Z,13756.00
2018-12-08T10:55:58.191Z,8192.00
2018-12-08T10:56:58.147Z,10480.00
2018-12-08T10:57:58.099Z,13504.00
2018-12-08T10:58:58.143Z,10588.00
2018-12-08T10:59:58.147Z,10052.00
2018-12-08T11:00:58.261Z,9132.00
2018-12-08T11:01:58.165Z,8368.00
2018-12-08T11:02:58.184Z,6820.00
2018-12-08T11:03:58.213Z,6892.00
2018-12-08T11:04:58.208Z,6612.00
2018-12-08T11:05:58.227Z,6256.00
2018-12-08T11:06:58.352Z,6012.00
2018-12-08T11:07:58.383Z,6532.00
2018-12-08T11:08:58.324Z,8220.00
2018-12-08T11:09:58.286Z,8464.00
2018-12-08T11:10:58.323Z,8144.00
2018-12-08T11:11:58.433Z,7084.00
2018-12-08T11:12:58.459Z,6300.00
2018-12-08T11:13:58.354Z,7120.00
2018-12-08T11:15:00.842Z,9140.00
2018-12-08T11:15:58.401Z,12528.00
2018-12-08T11:16:58.559Z,9464.00
2018-12-08T11:17:58.400Z,9048.00
2018-12-08T11:18:58.434Z,8680.00
2018-12-08T11:19:58.562Z,7568.00
2018-12-08T11:20:58.459Z,8400.00
2018-12-08T11:21:58.572Z,8724.00
2018-12-08T11:22:58.605Z,8672.00
2018-12-08T11:23:58.503Z,8300.00
2018-12-08T11:24:58.509Z,7760.00
2018-12-08T11:25:58.648Z,8208.00
2018-12-08T11:26:58.750Z,7736.00
2018-12-08T11:27:58.562Z,7892.00
2018-12-08T11:28:58.693Z,8664.00
2018-12-08T11:29:58.594Z,8460.00
2018-12-08T11:30:58.614Z,7256.00
2018-12-08T11:31:58.761Z,7388.00
2018-12-08T11:32:58.633Z,7868.00
2018-12-08T11:33:58.632Z,7484.00
2018-12-08T11:34:58.654Z,8040.00
2018-12-08T11:35:58.801Z,8260.00
2018-12-08T11:36:58.828Z,8796.00
2018-12-08T11:37:58.709Z,9496.00
2018-12-08T11:38:58.723Z,9448.00
2018-12-08T11:39:58.852Z,10524.00
2018-12-08T11:40:58.805Z,9796.00
2018-12-08T11:41:58.858Z,8528.00
2018-12-08T11:42:58.769Z,7708.00
2018-12-08T11:43:58.782Z,7916.00
2018-12-08T11:44:58.802Z,8260.00
2018-12-08T11:45:58.800Z,10588.00
2018-12-08T11:46:59.101Z,12556.00
2018-12-08T11:47:58.896Z,23424.00
2018-12-08T11:48:58.873Z,27072.00
2018-12-08T11:49:58.992Z,17888.00
2018-12-08T11:50:58.896Z,11972.00
2018-12-08T11:51:59.027Z,9252.00
2018-12-08T11:52:58.924Z,9560.00
2018-12-08T11:53:58.923Z,12704.00
2018-12-08T11:54:59.065Z,10048.00
2018-12-08T11:55:58.977Z,9940.00
2018-12-08T11:56:59.115Z,11096.00
2018-12-08T11:57:58.986Z,9816.00
2018-12-08T11:58:58.986Z,10012.00
2018-12-08T11:59:59.013Z,9360.00
2018-12-08T12:00:59.030Z,10772.00
2018-12-08T12:01:59.195Z,14604.00
2018-12-08T12:02:59.048Z,19392.00
2018-12-08T12:03:59.064Z,33504.00
2018-12-08T12:04:59.069Z,40736.00
2018-12-08T12:05:59.092Z,16960.00
2018-12-08T12:06:59.233Z,16012.00
2018-12-08T12:07:59.214Z,25312.00
2018-12-08T12:08:59.260Z,30752.00
2018-12-08T12:09:59.151Z,28512.00
2018-12-08T12:10:59.161Z,50176.00
2018-12-08T12:11:59.192Z,57440.00
2018-12-08T12:12:59.304Z,106816.00
2018-12-08T12:13:59.335Z,97760.00
2018-12-08T12:14:59.237Z,30464.00
2018-12-08T12:15:59.246Z,24192.00
2018-12-08T12:16:59.257Z,34336.00
2018-12-08T12:17:59.326Z,27104.00
2018-12-08T12:18:59.314Z,16864.00
2018-12-08T12:19:59.306Z,16512.00
2018-12-08T12:20:59.348Z,18048.00
2018-12-08T12:21:59.352Z,15304.00
2018-12-08T12:22:59.504Z,14064.00
2018-12-08T12:23:59.373Z,14416.00
2018-12-08T12:24:59.415Z,13204.00
2018-12-08T12:25:59.430Z,13108.00
2018-12-08T12:26:59.452Z,14224.00
2018-12-08T12:27:59.607Z,13912.00
2018-12-08T12:28:59.457Z,15080.00
2018-12-08T12:29:59.606Z,12796.00
2018-12-08T12:30:59.494Z,11404.00
2018-12-08T12:31:59.534Z,10820.00
2018-12-08T12:32:59.690Z,9232.00
2018-12-08T12:33:59.550Z,9100.00
2018-12-08T12:34:59.576Z,8440.00
2018-12-08T12:35:59.669Z,9216.00
2018-12-08T12:36:59.601Z,12876.00
2018-12-08T12:37:59.721Z,21568.00
2018-12-08T12:38:59.655Z,33184.00
2018-12-08T12:39:59.651Z,63488.00
2018-12-08T12:40:59.792Z,62176.00
2018-12-08T12:41:59.687Z,81120.00
2018-12-08T12:42:59.808Z,74976.00
2018-12-08T12:43:59.741Z,107648.00
2018-12-08T12:44:59.743Z,25376.00
2018-12-08T12:45:59.755Z,20928.00
2018-12-08T12:46:59.772Z,18336.00
2018-12-08T12:47:59.949Z,18144.00